sensor_id;sensor_type;location;lat;lon;timestamp;P1;durP1;ratioP1;P2;durP2;ratioP2
57571;SDS011;44459;43.522;24.470;2022-10-16T00:01:21;0.00;;;0.00;;
57571;SDS011;44459;43.522;24.470;2022-10-16T00:03:49;0.00;;;0.00;;
57571;SDS011;44459;43.522;24.470;2022-10-16T00:06:16;0.00;;;0.00;;
57571;SDS011;44459;43.522;24.470;2022-10-16T00:08:42;0.00;;;0.00;;
57571;SDS011;44459;43.522;24.470;2022-10-16T00:11:12;0.00;;;0.00;;
57571;SDS011;44459;43.522;24.470;2022-10-16T00:13:42;0.10;;;0.10;;
57571;SDS011;44459;43.522;24.470;2022-10-16T00:16:10;0.00;;;0.00;;
57571;SDS011;44459;43.522;24.470;2022-10-16T00:18:36;0.10;;;0.10;;
57571;SDS011;44459;43.522;24.470;2022-10-16T00:21:06;0.00;;;0.00;;
57571;SDS011;44459;43.522;24.470;2022-10-16T00:23:34;0.00;;;0.00;;
57571;SDS011;44459;43.522;24.470;2022-10-16T00:26:01;0.00;;;0.00;;
57571;SDS011;44459;43.522;24.470;2022-10-16T00:28:28;0.00;;;0.00;;
57571;SDS011;44459;43.522;24.470;2022-10-16T00:30:54;0.00;;;0.00;;
57571;SDS011;44459;43.522;24.470;2022-10-16T00:33:20;0.10;;;0.10;;
57571;SDS011;44459;43.522;24.470;2022-10-16T00:35:46;0.10;;;0.10;;
57571;SDS011;44459;43.522;24.470;2022-10-16T00:38:11;0.00;;;0.00;;
57571;SDS011;44459;43.522;24.470;2022-10-16T00:40:37;0.00;;;0.00;;
57571;SDS011;44459;43.522;24.470;2022-10-16T00:43:02;0.10;;;0.10;;
57571;SDS011;44459;43.522;24.470;2022-10-16T00:45:29;0.10;;;0.10;;
57571;SDS011;44459;43.522;24.470;2022-10-16T00:47:55;0.00;;;0.00;;
57571;SDS011;44459;43.522;24.470;2022-10-16T00:52:49;0.00;;;0.00;;
57571;SDS011;44459;43.522;24.470;2022-10-16T00:55:16;0.00;;;0.00;;
57571;SDS011;44459;43.522;24.470;2022-10-16T00:57:42;0.00;;;0.00;;
57571;SDS011;44459;43.522;24.470;2022-10-16T01:00:10;0.00;;;0.00;;
57571;SDS011;44459;43.522;24.470;2022-10-16T01:02:39;0.00;;;0.00;;
57571;SDS011;44459;43.522;24.470;2022-10-16T01:05:05;0.00;;;0.00;;
57571;SDS011;44459;43.522;24.470;2022-10-16T01:12:59;0.10;;;0.10;;
57571;SDS011;44459;43.522;24.470;2022-10-16T01:20:33;0.20;;;0.20;;
57571;SDS011;44459;43.522;24.470;2022-10-16T01:26:03;0.10;;;0.10;;
57571;SDS011;44459;43.522;24.470;2022-10-16T01:28:37;0.00;;;0.00;;
57571;SDS011;44459;43.522;24.470;2022-10-16T01:31:04;0.00;;;0.00;;
57571;SDS011;44459;43.522;24.470;2022-10-16T01:33:34;0.10;;;0.10;;
57571;SDS011;44459;43.522;24.470;2022-10-16T01:36:15;0.10;;;0.10;;
57571;SDS011;44459;43.522;24.470;2022-10-16T01:38:46;0.00;;;0.00;;
57571;SDS011;44459;43.522;24.470;2022-10-16T01:43:47;0.10;;;0.10;;
57571;SDS011;44459;43.522;24.470;2022-10-16T01:46:18;0.00;;;0.00;;
57571;SDS011;44459;43.522;24.470;2022-10-16T01:48:47;0.10;;;0.10;;
57571;SDS011;44459;43.522;24.470;2022-10-16T01:51:15;0.00;;;0.00;;
57571;SDS011;44459;43.522;24.470;2022-10-16T01:53:44;0.00;;;0.00;;
57571;SDS011;44459;43.522;24.470;2022-10-16T01:56:13;0.65;;;0.65;;
57571;SDS011;44459;43.522;24.470;2022-10-16T01:58:55;0.10;;;0.10;;
57571;SDS011;44459;43.522;24.470;2022-10-16T02:01:26;0.20;;;0.20;;
57571;SDS011;44459;43.522;24.470;2022-10-16T02:03:57;0.00;;;0.00;;
57571;SDS011;44459;43.522;24.470;2022-10-16T02:06:26;0.10;;;0.10;;
57571;SDS011;44459;43.522;24.470;2022-10-16T02:08:51;0.10;;;0.10;;
57571;SDS011;44459;43.522;24.470;2022-10-16T02:11:18;0.00;;;0.00;;
57571;SDS011;44459;43.522;24.470;2022-10-16T02:13:48;0.00;;;0.00;;
57571;SDS011;44459;43.522;24.470;2022-10-16T02:16:23;0.00;;;0.00;;
57571;SDS011;44459;43.522;24.470;2022-10-16T02:18:59;0.00;;;0.00;;
57571;SDS011;44459;43.522;24.470;2022-10-16T02:21:36;0.00;;;0.00;;
57571;SDS011;44459;43.522;24.470;2022-10-16T02:27:07;0.00;;;0.00;;
57571;SDS011;44459;43.522;24.470;2022-10-16T02:29:35;0.00;;;0.00;;
57571;SDS011;44459;43.522;24.470;2022-10-16T02:32:05;0.10;;;0.10;;
57571;SDS011;44459;43.522;24.470;2022-10-16T02:37:01;0.00;;;0.00;;
57571;SDS011;44459;43.522;24.470;2022-10-16T02:39:30;0.10;;;0.10;;
57571;SDS011;44459;43.522;24.470;2022-10-16T02:41:56;0.10;;;0.10;;
57571;SDS011;44459;43.522;24.470;2022-10-16T02:44:21;0.10;;;0.10;;
57571;SDS011;44459;43.522;24.470;2022-10-16T02:46:47;0.10;;;0.10;;
57571;SDS011;44459;43.522;24.470;2022-10-16T02:49:12;0.00;;;0.00;;
57571;SDS011;44459;43.522;24.470;2022-10-16T02:51:38;2.05;;;1.10;;
57571;SDS011;44459;43.522;24.470;2022-10-16T02:54:03;0.00;;;0.00;;
57571;SDS011;44459;43.522;24.470;2022-10-16T02:56:29;0.00;;;0.00;;
57571;SDS011;44459;43.522;24.470;2022-10-16T02:58:55;0.00;;;0.00;;
57571;SDS011;44459;43.522;24.470;2022-10-16T03:01:21;3.15;;;2.92;;
57571;SDS011;44459;43.522;24.470;2022-10-16T03:03:47;0.10;;;0.10;;
57571;SDS011;44459;43.522;24.470;2022-10-16T03:06:12;0.00;;;0.00;;
57571;SDS011;44459;43.522;24.470;2022-10-16T03:08:38;0.10;;;0.10;;
57571;SDS011;44459;43.522;24.470;2022-10-16T03:11:03;0.10;;;0.10;;
57571;SDS011;44459;43.522;24.470;2022-10-16T03:13:29;0.05;;;0.05;;
57571;SDS011;44459;43.522;24.470;2022-10-16T03:15:54;0.00;;;0.00;;
57571;SDS011;44459;43.522;24.470;2022-10-16T03:18:20;1.98;;;1.88;;
57571;SDS011;44459;43.522;24.470;2022-10-16T03:20:45;0.10;;;0.10;;
57571;SDS011;44459;43.522;24.470;2022-10-16T03:23:11;0.10;;;0.10;;
57571;SDS011;44459;43.522;24.470;2022-10-16T03:25:36;0.10;;;0.10;;
57571;SDS011;44459;43.522;24.470;2022-10-16T03:28:02;0.10;;;0.10;;
57571;SDS011;44459;43.522;24.470;2022-10-16T03:30:28;0.10;;;0.10;;
57571;SDS011;44459;43.522;24.470;2022-10-16T03:32:53;0.00;;;0.00;;
57571;SDS011;44459;43.522;24.470;2022-10-16T03:35:20;0.00;;;0.00;;
57571;SDS011;44459;43.522;24.470;2022-10-16T03:37:45;0.10;;;0.10;;
57571;SDS011;44459;43.522;24.470;2022-10-16T03:40:11;0.10;;;0.10;;
57571;SDS011;44459;43.522;24.470;2022-10-16T03:42:37;0.00;;;0.00;;
57571;SDS011;44459;43.522;24.470;2022-10-16T03:45:03;0.10;;;0.10;;
57571;SDS011;44459;43.522;24.470;2022-10-16T03:47:29;0.00;;;0.00;;
57571;SDS011;44459;43.522;24.470;2022-10-16T03:49:54;0.10;;;0.10;;
57571;SDS011;44459;43.522;24.470;2022-10-16T03:52:20;0.10;;;0.10;;
57571;SDS011;44459;43.522;24.470;2022-10-16T03:54:45;0.10;;;0.10;;
57571;SDS011;44459;43.522;24.470;2022-10-16T03:57:10;0.10;;;0.10;;
57571;SDS011;44459;43.522;24.470;2022-10-16T03:59:36;0.00;;;0.00;;
57571;SDS011;44459;43.522;24.470;2022-10-16T04:02:01;0.00;;;0.00;;
57571;SDS011;44459;43.522;24.470;2022-10-16T04:04:27;0.00;;;0.00;;
57571;SDS011;44459;43.522;24.470;2022-10-16T04:06:52;0.10;;;0.10;;
57571;SDS011;44459;43.522;24.470;2022-10-16T04:09:18;0.00;;;0.00;;
57571;SDS011;44459;43.522;24.470;2022-10-16T04:11:43;0.00;;;0.00;;
57571;SDS011;44459;43.522;24.470;2022-10-16T04:14:09;0.00;;;0.00;;
57571;SDS011;44459;43.522;24.470;2022-10-16T04:16:34;0.00;;;0.00;;
57571;SDS011;44459;43.522;24.470;2022-10-16T04:19:00;0.10;;;0.10;;
57571;SDS011;44459;43.522;24.470;2022-10-16T04:21:25;0.10;;;0.10;;
57571;SDS011;44459;43.522;24.470;2022-10-16T04:23:51;0.10;;;0.10;;
57571;SDS011;44459;43.522;24.470;2022-10-16T04:26:16;2.70;;;2.60;;
57571;SDS011;44459;43.522;24.470;2022-10-16T04:28:42;0.00;;;0.00;;
57571;SDS011;44459;43.522;24.470;2022-10-16T04:31:08;0.10;;;0.10;;
57571;SDS011;44459;43.522;24.470;2022-10-16T04:33:33;0.00;;;0.00;;
57571;SDS011;44459;43.522;24.470;2022-10-16T04:35:59;0.10;;;0.10;;
57571;SDS011;44459;43.522;24.470;2022-10-16T04:38:26;0.00;;;0.00;;
57571;SDS011;44459;43.522;24.470;2022-10-16T04:40:52;0.10;;;0.10;;
57571;SDS011;44459;43.522;24.470;2022-10-16T04:43:18;0.00;;;0.00;;
57571;SDS011;44459;43.522;24.470;2022-10-16T04:45:43;0.20;;;0.20;;
57571;SDS011;44459;43.522;24.470;2022-10-16T04:48:09;0.00;;;0.00;;
57571;SDS011;44459;43.522;24.470;2022-10-16T04:50:35;0.10;;;0.10;;
57571;SDS011;44459;43.522;24.470;2022-10-16T04:53:00;0.30;;;0.30;;
57571;SDS011;44459;43.522;24.470;2022-10-16T04:55:26;0.00;;;0.00;;
57571;SDS011;44459;43.522;24.470;2022-10-16T04:57:51;0.00;;;0.00;;
57571;SDS011;44459;43.522;24.470;2022-10-16T05:00:17;0.00;;;0.00;;
57571;SDS011;44459;43.522;24.470;2022-10-16T05:02:43;0.00;;;0.00;;
57571;SDS011;44459;43.522;24.470;2022-10-16T05:05:08;0.10;;;0.10;;
57571;SDS011;44459;43.522;24.470;2022-10-16T05:07:34;0.00;;;0.00;;
57571;SDS011;44459;43.522;24.470;2022-10-16T05:09:59;0.00;;;0.00;;
57571;SDS011;44459;43.522;24.470;2022-10-16T05:12:25;0.00;;;0.00;;
57571;SDS011;44459;43.522;24.470;2022-10-16T05:14:50;0.00;;;0.00;;
57571;SDS011;44459;43.522;24.470;2022-10-16T05:17:16;0.10;;;0.10;;
57571;SDS011;44459;43.522;24.470;2022-10-16T05:19:41;0.10;;;0.10;;
57571;SDS011;44459;43.522;24.470;2022-10-16T05:22:07;0.10;;;0.10;;
57571;SDS011;44459;43.522;24.470;2022-10-16T05:24:32;1.00;;;1.00;;
57571;SDS011;44459;43.522;24.470;2022-10-16T05:26:58;0.10;;;0.10;;
57571;SDS011;44459;43.522;24.470;2022-10-16T05:29:23;0.00;;;0.00;;
57571;SDS011;44459;43.522;24.470;2022-10-16T05:31:50;0.20;;;0.20;;
57571;SDS011;44459;43.522;24.470;2022-10-16T05:34:17;0.10;;;0.10;;
57571;SDS011;44459;43.522;24.470;2022-10-16T05:36:42;1.40;;;1.38;;
57571;SDS011;44459;43.522;24.470;2022-10-16T05:39:10;0.00;;;0.00;;
57571;SDS011;44459;43.522;24.470;2022-10-16T05:41:36;0.10;;;0.10;;
57571;SDS011;44459;43.522;24.470;2022-10-16T05:44:03;0.00;;;0.00;;
57571;SDS011;44459;43.522;24.470;2022-10-16T05:46:30;0.10;;;0.10;;
57571;SDS011;44459;43.522;24.470;2022-10-16T05:48:56;0.10;;;0.10;;
57571;SDS011;44459;43.522;24.470;2022-10-16T05:51:22;0.00;;;0.00;;
57571;SDS011;44459;43.522;24.470;2022-10-16T05:53:47;0.03;;;0.03;;
57571;SDS011;44459;43.522;24.470;2022-10-16T05:56:13;0.00;;;0.00;;
57571;SDS011;44459;43.522;24.470;2022-10-16T05:58:39;0.00;;;0.00;;
57571;SDS011;44459;43.522;24.470;2022-10-16T06:01:06;0.47;;;0.47;;
57571;SDS011;44459;43.522;24.470;2022-10-16T06:03:35;0.00;;;0.00;;
57571;SDS011;44459;43.522;24.470;2022-10-16T06:06:11;0.00;;;0.00;;
57571;SDS011;44459;43.522;24.470;2022-10-16T06:08:41;0.00;;;0.00;;
57571;SDS011;44459;43.522;24.470;2022-10-16T06:11:09;0.10;;;0.10;;
57571;SDS011;44459;43.522;24.470;2022-10-16T06:13:36;0.10;;;0.10;;
57571;SDS011;44459;43.522;24.470;2022-10-16T06:16:02;0.10;;;0.10;;
57571;SDS011;44459;43.522;24.470;2022-10-16T06:18:29;0.10;;;0.10;;
57571;SDS011;44459;43.522;24.470;2022-10-16T06:20:55;6.13;;;2.03;;
57571;SDS011;44459;43.522;24.470;2022-10-16T06:23:21;0.73;;;0.22;;
57571;SDS011;44459;43.522;24.470;2022-10-16T06:25:47;3.60;;;3.40;;
57571;SDS011;44459;43.522;24.470;2022-10-16T06:28:15;0.10;;;0.10;;
57571;SDS011;44459;43.522;24.470;2022-10-16T06:30:41;0.20;;;0.20;;
57571;SDS011;44459;43.522;24.470;2022-10-16T06:33:09;0.10;;;0.10;;
57571;SDS011;44459;43.522;24.470;2022-10-16T06:35:35;0.00;;;0.00;;
57571;SDS011;44459;43.522;24.470;2022-10-16T06:38:01;0.50;;;0.50;;
57571;SDS011;44459;43.522;24.470;2022-10-16T06:40:26;1.30;;;1.30;;
57571;SDS011;44459;43.522;24.470;2022-10-16T06:42:54;0.10;;;0.10;;
57571;SDS011;44459;43.522;24.470;2022-10-16T06:45:20;0.10;;;0.10;;
57571;SDS011;44459;43.522;24.470;2022-10-16T06:47:45;0.08;;;0.08;;
57571;SDS011;44459;43.522;24.470;2022-10-16T06:50:10;0.00;;;0.00;;
57571;SDS011;44459;43.522;24.470;2022-10-16T06:52:36;0.00;;;0.00;;
57571;SDS011;44459;43.522;24.470;2022-10-16T06:55:01;0.47;;;0.47;;
57571;SDS011;44459;43.522;24.470;2022-10-16T06:57:28;0.00;;;0.00;;
57571;SDS011;44459;43.522;24.470;2022-10-16T06:59:53;0.10;;;0.10;;
57571;SDS011;44459;43.522;24.470;2022-10-16T07:02:19;0.60;;;0.60;;
57571;SDS011;44459;43.522;24.470;2022-10-16T07:04:44;0.00;;;0.00;;
57571;SDS011;44459;43.522;24.470;2022-10-16T07:07:10;0.10;;;0.10;;
57571;SDS011;44459;43.522;24.470;2022-10-16T07:09:35;0.00;;;0.00;;
57571;SDS011;44459;43.522;24.470;2022-10-16T07:12:01;3.65;;;2.17;;
57571;SDS011;44459;43.522;24.470;2022-10-16T07:14:26;2.85;;;1.23;;
57571;SDS011;44459;43.522;24.470;2022-10-16T07:16:52;0.20;;;0.20;;
57571;SDS011;44459;43.522;24.470;2022-10-16T07:19:18;0.00;;;0.00;;
57571;SDS011;44459;43.522;24.470;2022-10-16T07:21:43;0.00;;;0.00;;
57571;SDS011;44459;43.522;24.470;2022-10-16T07:24:15;1.45;;;1.35;;
57571;SDS011;44459;43.522;24.470;2022-10-16T07:26:42;0.10;;;0.10;;
57571;SDS011;44459;43.522;24.470;2022-10-16T07:29:17;0.10;;;0.10;;
57571;SDS011;44459;43.522;24.470;2022-10-16T07:31:44;0.10;;;0.10;;
57571;SDS011;44459;43.522;24.470;2022-10-16T07:34:12;2.75;;;1.25;;
57571;SDS011;44459;43.522;24.470;2022-10-16T07:36:38;0.68;;;0.68;;
57571;SDS011;44459;43.522;24.470;2022-10-16T07:39:04;0.15;;;0.15;;
57571;SDS011;44459;43.522;24.470;2022-10-16T07:41:29;0.00;;;0.00;;
57571;SDS011;44459;43.522;24.470;2022-10-16T07:43:57;1.67;;;1.58;;
57571;SDS011;44459;43.522;24.470;2022-10-16T07:46:25;0.00;;;0.00;;
57571;SDS011;44459;43.522;24.470;2022-10-16T07:48:51;0.65;;;0.65;;
57571;SDS011;44459;43.522;24.470;2022-10-16T07:51:17;1.60;;;0.93;;
57571;SDS011;44459;43.522;24.470;2022-10-16T07:53:44;0.00;;;0.00;;
57571;SDS011;44459;43.522;24.470;2022-10-16T07:56:10;1.65;;;1.25;;
57571;SDS011;44459;43.522;24.470;2022-10-16T07:58:36;1.67;;;1.58;;
57571;SDS011;44459;43.522;24.470;2022-10-16T08:01:03;0.98;;;0.98;;
57571;SDS011;44459;43.522;24.470;2022-10-16T08:03:30;1.00;;;0.75;;
57571;SDS011;44459;43.522;24.470;2022-10-16T08:05:56;0.30;;;0.30;;
57571;SDS011;44459;43.522;24.470;2022-10-16T08:08:22;0.57;;;0.57;;
57571;SDS011;44459;43.522;24.470;2022-10-16T08:10:48;0.50;;;0.50;;
57571;SDS011;44459;43.522;24.470;2022-10-16T08:13:14;0.65;;;0.65;;
57571;SDS011;44459;43.522;24.470;2022-10-16T08:15:41;3.25;;;2.42;;
57571;SDS011;44459;43.522;24.470;2022-10-16T08:18:07;4.25;;;2.00;;
57571;SDS011;44459;43.522;24.470;2022-10-16T08:20:34;3.55;;;2.58;;
57571;SDS011;44459;43.522;24.470;2022-10-16T08:22:59;0.55;;;0.20;;
57571;SDS011;44459;43.522;24.470;2022-10-16T08:25:25;0.85;;;0.85;;
57571;SDS011;44459;43.522;24.470;2022-10-16T08:27:51;2.83;;;1.38;;
57571;SDS011;44459;43.522;24.470;2022-10-16T08:30:17;4.63;;;1.63;;
57571;SDS011;44459;43.522;24.470;2022-10-16T08:32:44;3.15;;;2.55;;
57571;SDS011;44459;43.522;24.470;2022-10-16T08:35:10;0.60;;;0.60;;
57571;SDS011;44459;43.522;24.470;2022-10-16T08:37:37;1.33;;;1.27;;
57571;SDS011;44459;43.522;24.470;2022-10-16T08:40:04;3.75;;;2.55;;
57571;SDS011;44459;43.522;24.470;2022-10-16T08:42:44;3.25;;;2.40;;
57571;SDS011;44459;43.522;24.470;2022-10-16T08:50:37;9.02;;;1.15;;
57571;SDS011;44459;43.522;24.470;2022-10-16T08:53:05;0.68;;;0.68;;
57571;SDS011;44459;43.522;24.470;2022-10-16T08:58:12;5.95;;;2.70;;
57571;SDS011;44459;43.522;24.470;2022-10-16T09:00:39;0.28;;;0.28;;
57571;SDS011;44459;43.522;24.470;2022-10-16T09:16:34;0.30;;;0.30;;
57571;SDS011;44459;43.522;24.470;2022-10-16T09:21:59;0.93;;;0.93;;
57571;SDS011;44459;43.522;24.470;2022-10-16T09:24:27;0.90;;;0.82;;
57571;SDS011;44459;43.522;24.470;2022-10-16T09:26:52;0.63;;;0.55;;
57571;SDS011;44459;43.522;24.470;2022-10-16T09:29:19;2.25;;;0.50;;
57571;SDS011;44459;43.522;24.470;2022-10-16T09:31:46;0.00;;;0.00;;
57571;SDS011;44459;43.522;24.470;2022-10-16T09:36:55;0.50;;;0.50;;
57571;SDS011;44459;43.522;24.470;2022-10-16T09:39:22;2.70;;;1.98;;
57571;SDS011;44459;43.522;24.470;2022-10-16T09:41:47;5.55;;;3.00;;
57571;SDS011;44459;43.522;24.470;2022-10-16T09:46:44;1.52;;;1.17;;
57571;SDS011;44459;43.522;24.470;2022-10-16T09:49:24;4.30;;;1.75;;
57571;SDS011;44459;43.522;24.470;2022-10-16T09:51:51;2.08;;;1.92;;
57571;SDS011;44459;43.522;24.470;2022-10-16T09:54:28;3.25;;;2.38;;
57571;SDS011;44459;43.522;24.470;2022-10-16T09:57:03;9.18;;;3.33;;
57571;SDS011;44459;43.522;24.470;2022-10-16T09:59:30;3.85;;;3.13;;
57571;SDS011;44459;43.522;24.470;2022-10-16T10:01:56;1.55;;;1.05;;
57571;SDS011;44459;43.522;24.470;2022-10-16T10:04:36;0.08;;;0.08;;
57571;SDS011;44459;43.522;24.470;2022-10-16T10:07:05;1.20;;;1.13;;
57571;SDS011;44459;43.522;24.470;2022-10-16T10:09:37;3.53;;;2.22;;
57571;SDS011;44459;43.522;24.470;2022-10-16T10:12:05;0.40;;;0.40;;
57571;SDS011;44459;43.522;24.470;2022-10-16T10:14:46;6.00;;;2.85;;
57571;SDS011;44459;43.522;24.470;2022-10-16T10:17:16;0.25;;;0.25;;
57571;SDS011;44459;43.522;24.470;2022-10-16T10:19:56;4.97;;;2.25;;
57571;SDS011;44459;43.522;24.470;2022-10-16T10:36:32;0.03;;;0.03;;
57571;SDS011;44459;43.522;24.470;2022-10-16T10:39:08;2.88;;;2.17;;
57571;SDS011;44459;43.522;24.470;2022-10-16T10:50:14;0.77;;;0.63;;
57571;SDS011;44459;43.522;24.470;2022-10-16T10:55:39;0.25;;;0.25;;
57571;SDS011;44459;43.522;24.470;2022-10-16T11:03:27;2.15;;;1.25;;
57571;SDS011;44459;43.522;24.470;2022-10-16T11:06:10;3.67;;;2.40;;
57571;SDS011;44459;43.522;24.470;2022-10-16T11:08:43;0.30;;;0.30;;
57571;SDS011;44459;43.522;24.470;2022-10-16T11:11:20;5.20;;;4.95;;
57571;SDS011;44459;43.522;24.470;2022-10-16T11:13:54;0.00;;;0.00;;
57571;SDS011;44459;43.522;24.470;2022-10-16T11:16:36;0.00;;;0.00;;
57571;SDS011;44459;43.522;24.470;2022-10-16T11:19:11;0.25;;;0.25;;
57571;SDS011;44459;43.522;24.470;2022-10-16T11:21:47;4.35;;;2.35;;
57571;SDS011;44459;43.522;24.470;2022-10-16T11:24:23;1.08;;;1.00;;
57571;SDS011;44459;43.522;24.470;2022-10-16T11:26:59;1.80;;;1.35;;
57571;SDS011;44459;43.522;24.470;2022-10-16T11:29:32;0.03;;;0.03;;
57571;SDS011;44459;43.522;24.470;2022-10-16T11:32:10;0.55;;;0.55;;
57571;SDS011;44459;43.522;24.470;2022-10-16T11:34:50;0.65;;;0.63;;
57571;SDS011;44459;43.522;24.470;2022-10-16T11:37:24;0.10;;;0.10;;
57571;SDS011;44459;43.522;24.470;2022-10-16T11:39:57;7.55;;;1.67;;
57571;SDS011;44459;43.522;24.470;2022-10-16T11:42:41;0.00;;;0.00;;
57571;SDS011;44459;43.522;24.470;2022-10-16T11:53:28;2.00;;;1.73;;
57571;SDS011;44459;43.522;24.470;2022-10-16T11:56:00;0.00;;;0.00;;
57571;SDS011;44459;43.522;24.470;2022-10-16T12:03:41;2.83;;;1.17;;
57571;SDS011;44459;43.522;24.470;2022-10-16T12:06:33;0.98;;;0.85;;
57571;SDS011;44459;43.522;24.470;2022-10-16T12:09:02;0.28;;;0.22;;
57571;SDS011;44459;43.522;24.470;2022-10-16T12:16:59;0.30;;;0.30;;
57571;SDS011;44459;43.522;24.470;2022-10-16T12:19:25;0.47;;;0.47;;
57571;SDS011;44459;43.522;24.470;2022-10-16T12:21:54;2.78;;;1.58;;
57571;SDS011;44459;43.522;24.470;2022-10-16T12:26:59;3.00;;;1.10;;
57571;SDS011;44459;43.522;24.470;2022-10-16T12:31:57;0.10;;;0.10;;
57571;SDS011;44459;43.522;24.470;2022-10-16T12:36:53;0.00;;;0.00;;
57571;SDS011;44459;43.522;24.470;2022-10-16T12:39:21;0.20;;;0.20;;
57571;SDS011;44459;43.522;24.470;2022-10-16T12:41:53;0.30;;;0.30;;
57571;SDS011;44459;43.522;24.470;2022-10-16T12:44:26;0.00;;;0.00;;
57571;SDS011;44459;43.522;24.470;2022-10-16T12:46:58;0.00;;;0.00;;
57571;SDS011;44459;43.522;24.470;2022-10-16T12:51:57;0.80;;;0.80;;
57571;SDS011;44459;43.522;24.470;2022-10-16T12:54:35;1.48;;;0.68;;
57571;SDS011;44459;43.522;24.470;2022-10-16T12:59:53;0.00;;;0.00;;
57571;SDS011;44459;43.522;24.470;2022-10-16T13:08:16;0.00;;;0.00;;
57571;SDS011;44459;43.522;24.470;2022-10-16T13:11:07;2.13;;;1.95;;
57571;SDS011;44459;43.522;24.470;2022-10-16T13:13:47;0.10;;;0.10;;
57571;SDS011;44459;43.522;24.470;2022-10-16T13:18:48;1.48;;;1.38;;
57571;SDS011;44459;43.522;24.470;2022-10-16T13:29:52;1.35;;;1.25;;
57571;SDS011;44459;43.522;24.470;2022-10-16T13:32:20;0.20;;;0.20;;
57571;SDS011;44459;43.522;24.470;2022-10-16T13:34:47;1.98;;;1.80;;
57571;SDS011;44459;43.522;24.470;2022-10-16T13:37:17;2.17;;;1.13;;
57571;SDS011;44459;43.522;24.470;2022-10-16T13:39:44;0.57;;;0.57;;
57571;SDS011;44459;43.522;24.470;2022-10-16T13:42:22;1.63;;;1.13;;
57571;SDS011;44459;43.522;24.470;2022-10-16T13:44:51;2.67;;;1.77;;
57571;SDS011;44459;43.522;24.470;2022-10-16T13:47:19;1.88;;;1.75;;
57571;SDS011;44459;43.522;24.470;2022-10-16T13:49:58;0.10;;;0.10;;
57571;SDS011;44459;43.522;24.470;2022-10-16T13:52:25;0.10;;;0.10;;
57571;SDS011;44459;43.522;24.470;2022-10-16T13:54:51;0.55;;;0.40;;
57571;SDS011;44459;43.522;24.470;2022-10-16T13:57:17;3.10;;;1.08;;
57571;SDS011;44459;43.522;24.470;2022-10-16T13:59:42;0.10;;;0.10;;
57571;SDS011;44459;43.522;24.470;2022-10-16T14:05:00;13.55;;;1.48;;
57571;SDS011;44459;43.522;24.470;2022-10-16T14:07:33;2.15;;;1.95;;
57571;SDS011;44459;43.522;24.470;2022-10-16T14:10:06;1.30;;;0.60;;
57571;SDS011;44459;43.522;24.470;2022-10-16T14:12:53;0.28;;;0.28;;
57571;SDS011;44459;43.522;24.470;2022-10-16T14:15:21;3.63;;;2.55;;
57571;SDS011;44459;43.522;24.470;2022-10-16T14:17:48;0.05;;;0.05;;
57571;SDS011;44459;43.522;24.470;2022-10-16T14:20:15;14.95;;;4.03;;
57571;SDS011;44459;43.522;24.470;2022-10-16T14:22:41;15.65;;;5.10;;
57571;SDS011;44459;43.522;24.470;2022-10-16T14:30:48;3.25;;;2.40;;
57571;SDS011;44459;43.522;24.470;2022-10-16T14:33:23;2.17;;;1.05;;
57571;SDS011;44459;43.522;24.470;2022-10-16T14:38:38;0.95;;;0.95;;
57571;SDS011;44459;43.522;24.470;2022-10-16T14:41:12;1.05;;;0.93;;
57571;SDS011;44459;43.522;24.470;2022-10-16T14:43:42;2.03;;;0.68;;
57571;SDS011;44459;43.522;24.470;2022-10-16T14:46:19;3.53;;;2.15;;
57571;SDS011;44459;43.522;24.470;2022-10-16T14:48:47;0.83;;;0.83;;
57571;SDS011;44459;43.522;24.470;2022-10-16T14:51:16;5.85;;;2.92;;
57571;SDS011;44459;43.522;24.470;2022-10-16T14:53:42;0.50;;;0.45;;
57571;SDS011;44459;43.522;24.470;2022-10-16T14:56:15;0.95;;;0.95;;
57571;SDS011;44459;43.522;24.470;2022-10-16T14:58:43;19.85;;;2.72;;
57571;SDS011;44459;43.522;24.470;2022-10-16T15:01:09;2.83;;;1.55;;
57571;SDS011;44459;43.522;24.470;2022-10-16T15:03:36;2.28;;;1.55;;
57571;SDS011;44459;43.522;24.470;2022-10-16T15:06:02;2.88;;;2.70;;
57571;SDS011;44459;43.522;24.470;2022-10-16T15:08:27;2.85;;;1.75;;
57571;SDS011;44459;43.522;24.470;2022-10-16T15:10:53;1.33;;;1.23;;
57571;SDS011;44459;43.522;24.470;2022-10-16T15:13:18;0.30;;;0.30;;
57571;SDS011;44459;43.522;24.470;2022-10-16T15:15:45;2.40;;;2.03;;
57571;SDS011;44459;43.522;24.470;2022-10-16T15:18:12;1.15;;;1.10;;
57571;SDS011;44459;43.522;24.470;2022-10-16T15:20:39;7.68;;;2.53;;
57571;SDS011;44459;43.522;24.470;2022-10-16T15:23:08;0.43;;;0.43;;
57571;SDS011;44459;43.522;24.470;2022-10-16T15:28:07;2.78;;;2.30;;
57571;SDS011;44459;43.522;24.470;2022-10-16T15:30:34;0.30;;;0.30;;
57571;SDS011;44459;43.522;24.470;2022-10-16T15:33:00;0.57;;;0.57;;
57571;SDS011;44459;43.522;24.470;2022-10-16T15:35:26;5.53;;;2.08;;
57571;SDS011;44459;43.522;24.470;2022-10-16T15:37:52;5.15;;;1.95;;
57571;SDS011;44459;43.522;24.470;2022-10-16T15:40:18;0.93;;;0.73;;
57571;SDS011;44459;43.522;24.470;2022-10-16T15:42:44;3.45;;;2.30;;
57571;SDS011;44459;43.522;24.470;2022-10-16T15:45:10;0.88;;;0.88;;
57571;SDS011;44459;43.522;24.470;2022-10-16T15:47:36;2.45;;;2.25;;
57571;SDS011;44459;43.522;24.470;2022-10-16T15:50:02;1.08;;;0.65;;
57571;SDS011;44459;43.522;24.470;2022-10-16T15:52:29;1.73;;;1.52;;
57571;SDS011;44459;43.522;24.470;2022-10-16T15:54:56;1.80;;;1.70;;
57571;SDS011;44459;43.522;24.470;2022-10-16T15:57:22;2.13;;;1.70;;
57571;SDS011;44459;43.522;24.470;2022-10-16T15:59:48;0.60;;;0.60;;
57571;SDS011;44459;43.522;24.470;2022-10-16T16:02:14;0.90;;;0.57;;
57571;SDS011;44459;43.522;24.470;2022-10-16T16:04:40;1.45;;;1.15;;
57571;SDS011;44459;43.522;24.470;2022-10-16T16:07:05;1.48;;;1.35;;
57571;SDS011;44459;43.522;24.470;2022-10-16T16:09:32;0.00;;;0.00;;
57571;SDS011;44459;43.522;24.470;2022-10-16T16:11:58;2.92;;;1.95;;
57571;SDS011;44459;43.522;24.470;2022-10-16T16:14:25;0.00;;;0.00;;
57571;SDS011;44459;43.522;24.470;2022-10-16T16:16:53;1.70;;;0.95;;
57571;SDS011;44459;43.522;24.470;2022-10-16T16:19:19;5.63;;;2.53;;
57571;SDS011;44459;43.522;24.470;2022-10-16T16:21:46;2.47;;;2.03;;
57571;SDS011;44459;43.522;24.470;2022-10-16T16:24:12;8.93;;;2.90;;
57571;SDS011;44459;43.522;24.470;2022-10-16T16:26:37;2.13;;;1.08;;
57571;SDS011;44459;43.522;24.470;2022-10-16T16:29:04;3.47;;;2.70;;
57571;SDS011;44459;43.522;24.470;2022-10-16T16:31:31;14.10;;;5.10;;
57571;SDS011;44459;43.522;24.470;2022-10-16T16:33:57;33.65;;;26.20;;
57571;SDS011;44459;43.522;24.470;2022-10-16T16:36:23;32.80;;;26.70;;
57571;SDS011;44459;43.522;24.470;2022-10-16T16:38:50;207.90;;;83.10;;
57571;SDS011;44459;43.522;24.470;2022-10-16T16:41:19;172.45;;;90.05;;
57571;SDS011;44459;43.522;24.470;2022-10-16T16:43:47;43.75;;;29.33;;
57571;SDS011;44459;43.522;24.470;2022-10-16T16:46:13;60.95;;;45.70;;
57571;SDS011;44459;43.522;24.470;2022-10-16T16:48:39;177.30;;;77.57;;
57571;SDS011;44459;43.522;24.470;2022-10-16T16:51:06;9.57;;;8.73;;
57571;SDS011;44459;43.522;24.470;2022-10-16T16:53:33;81.75;;;73.72;;
57571;SDS011;44459;43.522;24.470;2022-10-16T16:56:03;13.63;;;10.55;;
57571;SDS011;44459;43.522;24.470;2022-10-16T17:00:54;3.15;;;2.95;;
57571;SDS011;44459;43.522;24.470;2022-10-16T17:03:20;0.00;;;0.00;;
57571;SDS011;44459;43.522;24.470;2022-10-16T17:05:54;2.10;;;2.05;;
57571;SDS011;44459;43.522;24.470;2022-10-16T17:08:21;0.85;;;0.85;;